Time;durP1;ratioP1;P1;durP2;ratioP2;P2;SDS_P1;SDS_P2;PMS_P1;PMS_P2;Temp;Humidity;BMP_temperature;BMP_pressure;BME280_temperature;BME280_humidity;BME280_pressure;Samples;Min_cycle;Max_cycle;Signal;HPM_P1;HPM_P2
2022/01/12 00:00:39;;;;;;;19.45;7.32;;;;;;;;;;5038137;28;20083;-79
2022/01/12 00:03:05;;;;;;;18.83;7.95;;;;;;;;;;5038289;28;20068;-81
2022/01/12 00:05:30;;;;;;;20.58;8.48;;;;;;;;;;5036658;28;20022;-79
2022/01/12 00:07:56;;;;;;;20.65;7.95;;;;;;;;;;5038130;28;20021;-78
2022/01/12 00:10:21;;;;;;;19.10;7.80;;;;;;;;;;5038446;28;20421;-79
2022/01/12 00:12:46;;;;;;;20.98;7.78;;;;;;;;;;5037783;28;20038;-78
2022/01/12 00:15:13;;;;;;;18.50;8.35;;;;;;;;;;5020889;28;20492;-79
2022/01/12 00:17:39;;;;;;;19.95;8.05;;;;;;;;;;5037527;28;20114;-78
2022/01/12 00:20:04;;;;;;;21.63;8.30;;;;;;;;;;5037146;28;20025;-79
2022/01/12 00:22:32;;;;;;;19.00;8.23;;;;;;;;;;5037440;28;20068;-79
2022/01/12 00:33:11;;;;;;;20.77;7.43;;;;;;;;;;5037754;28;19916;-79
2022/01/12 00:35:38;;;;;;;15.95;7.07;;;;;;;;;;5022840;28;20402;-80
2022/01/12 00:38:03;;;;;;;18.95;7.40;;;;;;;;;;5037967;28;20021;-80
2022/01/12 00:40:29;;;;;;;18.52;7.97;;;;;;;;;;5038836;28;20033;-80
2022/01/12 00:42:54;;;;;;;19.42;8.23;;;;;;;;;;5037855;28;20026;-80
2022/01/12 00:45:21;;;;;;;18.02;8.23;;;;;;;;;;5037766;28;20036;-79
2022/01/12 00:47:46;;;;;;;19.63;8.40;;;;;;;;;;5038074;28;20030;-80
2022/01/12 00:50:12;;;;;;;18.63;8.30;;;;;;;;;;5038600;28;20052;-80
2022/01/12 00:52:37;;;;;;;21.73;8.45;;;;;;;;;;5037786;28;20486;-79
2022/01/12 00:55:03;;;;;;;20.92;8.00;;;;;;;;;;5041246;28;20100;-79
2022/01/12 00:57:29;;;;;;;23.27;9.02;;;;;;;;;;5040578;28;20029;-79
2022/01/12 00:59:55;;;;;;;20.17;8.45;;;;;;;;;;5042930;28;20022;-80
2022/01/12 01:02:20;;;;;;;23.23;8.95;;;;;;;;;;5042225;28;20064;-79
2022/01/12 01:04:45;;;;;;;17.75;8.32;;;;;;;;;;5041764;28;20021;-79
2022/01/12 01:07:10;;;;;;;17.95;8.30;;;;;;;;;;5041969;28;20033;-78
2022/01/12 01:09:40;;;;;;;16.02;7.45;;;;;;;;;;5041923;28;20026;-79
2022/01/12 01:12:06;;;;;;;17.70;7.82;;;;;;;;;;5040473;28;20041;-78
2022/01/12 01:14:46;;;;;;;20.65;8.23;;;;;;;;;;5042230;28;20037;-79
2022/01/12 01:25:32;;;;;;;16.10;7.00;;;;;;;;;;5041861;28;20079;-79
2022/01/12 01:27:58;;;;;;;16.55;7.18;;;;;;;;;;5042114;28;20090;-80
2022/01/12 01:30:24;;;;;;;16.70;7.03;;;;;;;;;;5041218;28;20432;-78
2022/01/12 01:32:49;;;;;;;16.88;7.15;;;;;;;;;;5040999;28;20066;-80
2022/01/12 01:35:18;;;;;;;16.13;7.63;;;;;;;;;;5041138;28;20014;-79
2022/01/12 01:37:44;;;;;;;17.60;7.25;;;;;;;;;;5041360;28;20018;-80
2022/01/12 01:40:11;;;;;;;14.27;6.25;;;;;;;;;;5041023;28;20471;-79
2022/01/12 01:42:55;;;;;;;19.08;6.72;;;;;;;;;;5040693;28;20087;-80
2022/01/12 01:53:38;;;;;;;18.50;6.97;;;;;;;;;;5041241;28;20032;-79
2022/01/12 01:56:04;;;;;;;14.50;6.65;;;;;;;;;;5040395;28;20025;-78
2022/01/12 01:58:29;;;;;;;16.10;6.90;;;;;;;;;;5040843;28;20075;-78
2022/01/12 02:00:54;;;;;;;15.77;6.43;;;;;;;;;;5040533;28;20174;-80
2022/01/12 02:03:19;;;;;;;18.40;6.38;;;;;;;;;;5040296;28;20061;-79
2022/01/12 02:05:45;;;;;;;18.52;6.88;;;;;;;;;;5021590;28;20030;-79
2022/01/12 02:08:11;;;;;;;16.63;6.45;;;;;;;;;;5039726;28;20033;-80
2022/01/12 02:10:36;;;;;;;12.77;6.65;;;;;;;;;;5041594;28;20046;-80
2022/01/12 02:13:02;;;;;;;13.57;5.88;;;;;;;;;;5040495;28;20029;-78
2022/01/12 02:15:28;;;;;;;12.98;5.90;;;;;;;;;;5040486;28;20051;-80
2022/01/12 02:40:14;;;;;;;12.05;5.35;;;;;;;;;;5039946;28;20036;-78
2022/01/12 02:42:44;;;;;;;14.35;6.07;;;;;;;;;;5039520;28;20029;-80
2022/01/12 02:55:46;;;;;;;12.05;5.47;;;;;;;;;;5039275;28;20025;-79
2022/01/12 02:58:11;;;;;;;15.32;6.22;;;;;;;;;;5019946;28;20022;-78
2022/01/12 03:01:04;;;;;;;12.75;5.45;;;;;;;;;;5037340;28;20021;-79
2022/01/12 03:03:33;;;;;;;10.00;4.80;;;;;;;;;;5037558;28;20033;-78
2022/01/12 03:06:04;;;;;;;12.50;5.57;;;;;;;;;;5020790;28;20045;-80
2022/01/12 03:08:36;;;;;;;12.07;5.50;;;;;;;;;;5039600;28;20023;-80
2022/01/12 03:11:06;;;;;;;11.25;5.55;;;;;;;;;;5037248;28;20028;-79
2022/01/12 03:13:31;;;;;;;14.48;5.75;;;;;;;;;;5039031;28;20045;-79
2022/01/12 03:15:57;;;;;;;16.13;6.22;;;;;;;;;;5037789;28;20017;-79
2022/01/12 03:18:22;;;;;;;13.00;5.65;;;;;;;;;;5039319;28;20442;-79
2022/01/12 03:20:48;;;;;;;13.75;5.57;;;;;;;;;;5039371;28;20038;-79
2022/01/12 03:23:15;;;;;;;15.18;6.05;;;;;;;;;;5039840;28;20025;-79
2022/01/12 03:25:40;;;;;;;15.32;5.70;;;;;;;;;;5039146;28;20017;-80
2022/01/12 03:28:07;;;;;;;15.90;6.82;;;;;;;;;;5040044;28;20021;-80
2022/01/12 03:30:46;;;;;;;13.30;6.05;;;;;;;;;;5039615;28;20037;-79
2022/01/12 03:33:29;;;;;;;14.82;6.78;;;;;;;;;;5021404;28;20032;-79
2022/01/12 03:36:22;;;;;;;17.20;7.47;;;;;;;;;;5038778;28;20025;-78
2022/01/12 03:38:39;;;;;;;15.55;6.30;;;;;;;;;;5038723;28;20091;-80
2022/01/12 03:41:04;;;;;;;15.13;6.07;;;;;;;;;;5020653;28;20029;-80
2022/01/12 03:43:30;;;;;;;14.40;6.43;;;;;;;;;;5039098;28;20056;-80
2022/01/12 03:45:55;;;;;;;18.33;6.95;;;;;;;;;;5037872;28;20517;-80
2022/01/12 03:48:20;;;;;;;16.73;6.68;;;;;;;;;;5021257;28;20471;-80
2022/01/12 03:50:45;;;;;;;18.30;7.05;;;;;;;;;;5039306;28;20025;-80
2022/01/12 03:53:11;;;;;;;15.90;6.55;;;;;;;;;;5039893;28;20028;-80
2022/01/12 03:55:36;;;;;;;17.17;7.22;;;;;;;;;;5040114;28;20053;-80
2022/01/12 03:58:02;;;;;;;21.90;8.93;;;;;;;;;;5022047;28;20029;-79
2022/01/12 04:00:27;;;;;;;33.95;13.35;;;;;;;;;;5022268;28;20089;-78
2022/01/12 04:02:52;;;;;;;35.65;12.88;;;;;;;;;;5039613;28;20060;-79
2022/01/12 04:08:19;;;;;;;30.13;11.43;;;;;;;;;;5038497;28;20029;-79
2022/01/12 04:10:48;;;;;;;;;;;;;;;;;;5038653;28;20108;-79
2022/01/12 04:13:14;;;;;;;19.20;7.35;;;;;;;;;;5038052;28;19913;-79
2022/01/12 04:15:43;;;;;;;16.30;7.85;;;;;;;;;;5037651;28;20021;-79
2022/01/12 04:18:08;;;;;;;23.02;8.25;;;;;;;;;;5038665;28;20037;-79
2022/01/12 04:20:33;;;;;;;20.55;7.20;;;;;;;;;;5039624;28;20036;-79
2022/01/12 04:23:17;;;;;;;22.42;8.25;;;;;;;;;;5037411;28;20041;-79
2022/01/12 04:25:56;;;;;;;17.60;7.90;;;;;;;;;;5038838;28;20056;-78
2022/01/12 04:28:22;;;;;;;17.65;7.93;;;;;;;;;;5041355;28;20029;-78
2022/01/12 04:30:49;;;;;;;20.48;8.02;;;;;;;;;;5043074;28;20109;-79
2022/01/12 04:33:15;;;;;;;21.02;9.57;;;;;;;;;;5042625;28;20025;-79
2022/01/12 04:35:47;;;;;;;21.38;8.40;;;;;;;;;;5041350;28;20025;-79
2022/01/12 04:38:13;;;;;;;20.88;8.80;;;;;;;;;;5040040;28;20025;-78
2022/01/12 04:40:39;;;;;;;19.25;8.70;;;;;;;;;;5039682;28;20037;-80
2022/01/12 04:43:06;;;;;;;24.02;8.65;;;;;;;;;;5039615;28;20376;-78
2022/01/12 04:45:38;;;;;;;23.58;8.82;;;;;;;;;;5039062;28;20025;-78
2022/01/12 04:50:42;;;;;;;22.95;9.35;;;;;;;;;;5039758;28;20113;-79
2022/01/12 04:53:07;;;;;;;26.13;9.27;;;;;;;;;;5021739;28;20401;-78
2022/01/12 04:55:33;;;;;;;28.02;10.10;;;;;;;;;;5037652;28;20109;-77
2022/01/12 04:57:58;;;;;;;20.92;9.23;;;;;;;;;;5039978;28;20029;-79
2022/01/12 05:00:25;;;;;;;26.17;9.68;;;;;;;;;;5040030;28;20431;-78
2022/01/12 05:08:38;;;;;;;20.88;8.38;;;;;;;;;;5040123;28;20028;-78
2022/01/12 05:13:49;;;;;;;21.52;8.55;;;;;;;;;;5039988;28;20290;-80
2022/01/12 05:16:15;;;;;;;22.38;9.40;;;;;;;;;;5040463;28;20029;-78
2022/01/12 05:18:43;;;;;;;26.58;9.32;;;;;;;;;;5039860;28;20552;-78
2022/01/12 05:21:09;;;;;;;23.00;9.90;;;;;;;;;;5039811;28;20056;-78
2022/01/12 05:23:34;;;;;;;22.95;9.63;;;;;;;;;;5039484;28;20471;-77
2022/01/12 05:26:00;;;;;;;23.40;9.35;;;;;;;;;;5039667;28;20025;-77
2022/01/12 05:28:26;;;;;;;23.00;9.35;;;;;;;;;;5039720;28;20076;-78
2022/01/12 05:30:53;;;;;;;21.25;8.65;;;;;;;;;;5021825;28;20025;-79
2022/01/12 05:33:19;;;;;;;22.80;9.52;;;;;;;;;;5040129;28;20114;-80
2022/01/12 05:35:45;;;;;;;23.38;9.38;;;;;;;;;;5039817;28;20093;-79
2022/01/12 05:38:12;;;;;;;24.70;9.88;;;;;;;;;;5040800;28;20036;-78
2022/01/12 05:40:39;;;;;;;19.50;8.45;;;;;;;;;;5021185;28;20084;-78
2022/01/12 05:43:06;;;;;;;23.67;9.57;;;;;;;;;;5040129;28;20048;-78
2022/01/12 05:45:38;;;;;;;21.40;9.68;;;;;;;;;;5040188;28;20021;-79
2022/01/12 05:50:36;;;;;;;24.95;9.18;;;;;;;;;;5040654;28;20409;-77
2022/01/12 05:53:02;;;;;;;20.30;8.07;;;;;;;;;;5040053;28;20025;-79
2022/01/12 05:55:28;;;;;;;23.75;9.20;;;;;;;;;;5039925;28;20033;-79
2022/01/12 05:57:53;;;;;;;21.73;8.98;;;;;;;;;;5022144;28;20033;-80
2022/01/12 06:00:20;;;;;;;25.10;9.32;;;;;;;;;;5038244;28;20029;-79
2022/01/12 06:02:46;;;;;;;23.90;9.35;;;;;;;;;;5039916;28;20039;-79
2022/01/12 06:05:14;;;;;;;24.17;9.05;;;;;;;;;;5040159;28;20022;-78
2022/01/12 06:07:40;;;;;;;21.00;8.80;;;;;;;;;;5040846;28;20503;-79
2022/01/12 06:10:06;;;;;;;20.80;8.75;;;;;;;;;;5039777;28;20025;-81
2022/01/12 06:12:31;;;;;;;24.27;9.60;;;;;;;;;;5038538;28;20035;-79
2022/01/12 06:14:56;;;;;;;29.33;9.68;;;;;;;;;;5022910;28;20037;-78
2022/01/12 06:17:22;;;;;;;22.60;9.48;;;;;;;;;;5039860;28;20076;-80
2022/01/12 06:19:47;;;;;;;21.92;9.27;;;;;;;;;;5038068;28;20032;-78
2022/01/12 06:22:13;;;;;;;23.30;9.00;;;;;;;;;;5043155;28;20064;-77
2022/01/12 06:24:38;;;;;;;22.63;9.27;;;;;;;;;;5058974;28;20035;-77
2022/01/12 06:27:04;;;;;;;26.52;9.27;;;;;;;;;;5059205;28;20010;-78
2022/01/12 06:29:43;;;;;;;24.25;9.40;;;;;;;;;;5026496;28;20043;-79
2022/01/12 06:32:09;;;;;;;25.80;9.10;;;;;;;;;;5022421;28;20052;-79
2022/01/12 06:34:34;;;;;;;23.38;9.35;;;;;;;;;;5038758;28;20025;-79
2022/01/12 06:37:00;;;;;;;27.20;10.02;;;;;;;;;;5037982;28;20029;-80
2022/01/12 06:39:26;;;;;;;29.20;10.07;;;;;;;;;;5040588;28;20025;-80
2022/01/12 06:41:54;;;;;;;23.85;9.57;;;;;;;;;;5041092;28;20060;-80
2022/01/12 06:44:20;;;;;;;23.25;9.35;;;;;;;;;;5040285;28;20033;-78
2022/01/12 06:46:47;;;;;;;23.27;9.25;;;;;;;;;;5022632;28;20029;-80
2022/01/12 06:49:13;;;;;;;21.58;9.25;;;;;;;;;;5022534;28;20121;-79
2022/01/12 06:51:39;;;;;;;26.23;10.20;;;;;;;;;;5039871;28;20029;-79
2022/01/12 06:54:05;;;;;;;31.83;10.55;;;;;;;;;;5022204;28;20031;-80
2022/01/12 06:56:30;;;;;;;22.02;9.95;;;;;;;;;;5039688;28;20037;-78
2022/01/12 06:58:56;;;;;;;27.33;9.40;;;;;;;;;;5039328;28;20026;-79
2022/01/12 07:01:21;;;;;;;27.13;10.18;;;;;;;;;;5038348;28;20036;-80
2022/01/12 07:03:48;;;;;;;25.70;10.10;;;;;;;;;;5037582;28;20017;-79
2022/01/12 07:06:13;;;;;;;25.38;9.45;;;;;;;;;;5038130;28;20029;-79
2022/01/12 07:08:39;;;;;;;22.88;9.80;;;;;;;;;;5037681;28;20025;-78
2022/01/12 07:11:04;;;;;;;26.45;11.50;;;;;;;;;;5037875;28;20033;-79
2022/01/12 07:13:29;;;;;;;24.38;10.27;;;;;;;;;;5037828;28;20025;-79
2022/01/12 07:15:55;;;;;;;25.48;10.05;;;;;;;;;;5038204;28;20057;-80
2022/01/12 07:18:21;;;;;;;26.88;10.38;;;;;;;;;;5038630;28;20033;-79
2022/01/12 07:20:48;;;;;;;24.88;10.23;;;;;;;;;;5037882;28;20021;-79
2022/01/12 07:23:13;;;;;;;27.55;10.80;;;;;;;;;;5038201;28;20057;-79
2022/01/12 07:25:38;;;;;;;24.73;10.65;;;;;;;;;;5037935;28;20033;-78
2022/01/12 07:28:04;;;;;;;26.85;10.85;;;;;;;;;;5038493;28;20089;-79
2022/01/12 07:30:29;;;;;;;28.10;10.63;;;;;;;;;;5038117;28;20061;-80
2022/01/12 07:32:54;;;;;;;25.70;10.02;;;;;;;;;;5037906;28;20390;-78
2022/01/12 07:35:20;;;;;;;28.02;10.77;;;;;;;;;;5037930;28;20021;-77
2022/01/12 07:37:45;;;;;;;26.50;9.95;;;;;;;;;;5036925;28;20040;-79
2022/01/12 07:40:12;;;;;;;25.45;10.05;;;;;;;;;;5038263;28;20017;-78
2022/01/12 07:42:37;;;;;;;32.85;10.48;;;;;;;;;;5037094;28;20025;-78
2022/01/12 07:45:02;;;;;;;26.85;10.65;;;;;;;;;;5036656;28;20032;-78
2022/01/12 07:47:31;;;;;;;25.20;10.75;;;;;;;;;;5036713;28;20124;-80
2022/01/12 07:49:58;;;;;;;29.15;10.77;;;;;;;;;;5020107;28;20029;-79
2022/01/12 07:52:24;;;;;;;31.27;11.02;;;;;;;;;;5038075;28;20044;-78
2022/01/12 07:54:49;;;;;;;28.33;10.43;;;;;;;;;;5037954;28;20406;-79
2022/01/12 07:57:15;;;;;;;25.42;10.27;;;;;;;;;;5037763;28;20063;-78
2022/01/12 07:59:40;;;;;;;28.02;11.30;;;;;;;;;;5038241;28;20037;-80
2022/01/12 08:02:06;;;;;;;25.05;10.02;;;;;;;;;;5036796;28;20070;-78
2022/01/12 08:04:31;;;;;;;26.50;10.68;;;;;;;;;;5020556;28;20079;-79
2022/01/12 08:06:56;;;;;;;28.67;11.15;;;;;;;;;;5037718;28;20046;-79
2022/01/12 08:09:22;;;;;;;25.95;10.50;;;;;;;;;;5037669;28;20030;-78
2022/01/12 08:11:48;;;;;;;27.67;10.40;;;;;;;;;;5037405;28;20056;-78
2022/01/12 08:14:15;;;;;;;26.20;10.68;;;;;;;;;;5035887;28;20571;-79
2022/01/12 08:16:41;;;;;;;28.85;10.80;;;;;;;;;;5037965;28;20425;-79
2022/01/12 08:19:06;;;;;;;28.73;10.38;;;;;;;;;;5037380;28;20030;-78
2022/01/12 08:21:31;;;;;;;27.48;10.32;;;;;;;;;;5037586;28;20025;-79
2022/01/12 08:23:56;;;;;;;24.98;10.48;;;;;;;;;;5019310;28;20027;-78
2022/01/12 08:26:22;;;;;;;25.45;9.05;;;;;;;;;;5037173;28;20030;-80
2022/01/12 08:28:47;;;;;;;26.85;10.10;;;;;;;;;;5037794;28;20029;-79
2022/01/12 08:31:12;;;;;;;24.50;10.40;;;;;;;;;;5036491;28;20087;-78
2022/01/12 08:33:37;;;;;;;26.70;10.65;;;;;;;;;;5020860;28;20025;-79
2022/01/12 08:36:04;;;;;;;27.30;10.43;;;;;;;;;;5021570;28;20084;-81
2022/01/12 08:38:29;;;;;;;25.85;10.35;;;;;;;;;;5044715;28;20031;-79
2022/01/12 08:40:54;;;;;;;28.48;11.32;;;;;;;;;;5045752;28;20044;-79
2022/01/12 08:43:19;;;;;;;26.05;10.30;;;;;;;;;;5045689;28;20029;-80
2022/01/12 08:45:45;;;;;;;31.05;10.88;;;;;;;;;;5043769;28;20146;-79
2022/01/12 08:48:10;;;;;;;30.05;10.65;;;;;;;;;;5043795;28;20467;-79
2022/01/12 08:50:35;;;;;;;33.05;12.20;;;;;;;;;;5047722;28;20036;-79
2022/01/12 08:53:01;;;;;;;26.00;9.50;;;;;;;;;;5026874;28;20026;-79
2022/01/12 08:55:26;;;;;;;25.17;10.02;;;;;;;;;;5041967;28;20021;-82
2022/01/12 08:57:59;;;;;;;28.55;10.55;;;;;;;;;;5018537;28;20504;-78
2022/01/12 09:00:25;;;;;;;31.73;10.67;;;;;;;;;;5036624;28;20405;-79
2022/01/12 09:02:51;;;;;;;26.50;10.77;;;;;;;;;;5038178;28;20033;-79
2022/01/12 09:05:16;;;;;;;27.60;10.52;;;;;;;;;;5037487;28;20122;-80
2022/01/12 09:07:42;;;;;;;28.42;11.40;;;;;;;;;;5038399;28;20100;-80
2022/01/12 09:10:09;;;;;;;30.02;11.23;;;;;;;;;;5040699;28;20036;-79
2022/01/12 09:12:36;;;;;;;26.52;10.75;;;;;;;;;;5041813;28;20051;-80
2022/01/12 09:15:03;;;;;;;25.05;11.05;;;;;;;;;;5043109;28;20022;-79
2022/01/12 09:17:28;;;;;;;26.45;10.63;;;;;;;;;;5043631;28;20025;-82
2022/01/12 09:19:54;;;;;;;25.35;10.32;;;;;;;;;;5044447;28;20032;-81
2022/01/12 09:22:19;;;;;;;24.83;10.35;;;;;;;;;;5044773;28;20112;-81
2022/01/12 09:24:46;;;;;;;27.33;10.98;;;;;;;;;;5044611;28;20021;-81
2022/01/12 09:27:12;;;;;;;24.92;9.98;;;;;;;;;;5025329;28;20108;-80
2022/01/12 09:29:37;;;;;;;29.63;11.43;;;;;;;;;;5042677;28;20053;-80
2022/01/12 09:32:03;;;;;;;21.85;8.93;;;;;;;;;;5027587;28;20024;-80
2022/01/12 09:34:28;;;;;;;25.73;10.57;;;;;;;;;;5044951;28;20021;-81
2022/01/12 09:36:53;;;;;;;25.35;10.07;;;;;;;;;;5044590;28;20057;-82
2022/01/12 09:39:19;;;;;;;27.52;11.10;;;;;;;;;;5045876;28;20120;-81
2022/01/12 09:41:44;;;;;;;29.52;10.27;;;;;;;;;;5046341;28;20034;-80
2022/01/12 09:44:10;;;;;;;27.23;10.38;;;;;;;;;;5045693;28;20021;-82
2022/01/12 09:46:35;;;;;;;25.55;10.20;;;;;;;;;;5045170;28;20021;-81
2022/01/12 09:49:03;;;;;;;28.17;10.88;;;;;;;;;;5027020;28;20474;-79
2022/01/12 09:51:28;;;;;;;26.63;10.52;;;;;;;;;;5045373;28;20022;-81
2022/01/12 09:53:58;;;;;;;23.25;9.80;;;;;;;;;;5027192;28;20036;-82
2022/01/12 09:56:25;;;;;;;24.27;9.93;;;;;;;;;;5043923;28;20044;-79
2022/01/12 09:58:58;;;;;;;25.30;9.35;;;;;;;;;;5043309;28;20021;-80
2022/01/12 10:01:49;;;;;;;29.90;10.75;;;;;;;;;;5045029;28;20029;-81
2022/01/12 10:04:28;;;;;;;22.00;9.27;;;;;;;;;;5044000;28;20032;-81
2022/01/12 10:07:03;;;;;;;25.20;10.05;;;;;;;;;;5043512;28;20022;-80
2022/01/12 10:09:45;;;;;;;25.50;10.32;;;;;;;;;;5043128;28;20033;-80
2022/01/12 10:12:17;;;;;;;26.75;10.27;;;;;;;;;;5041758;28;20025;-81
2022/01/12 10:15:01;;;;;;;;;;;;;;;;;;;;;
2022/01/12 10:17:44;;;;;;;27.17;10.27;;;;;;;;;;5042146;28;20093;-80
2022/01/12 10:20:17;;;;;;;23.98;9.70;;;;;;;;;;5041132;28;20443;-81
2022/01/12 10:23:10;;;;;;;23.63;10.40;;;;;;;;;;5025068;28;20026;-79
2022/01/12 10:25:41;;;;;;;25.17;10.57;;;;;;;;;;5014285;28;20072;-79
2022/01/12 10:28:35;;;;;;;23.05;9.43;;;;;;;;;;5043750;28;20021;-81
2022/01/12 10:31:24;;;;;;;24.67;11.25;;;;;;;;;;5041269;28;20049;-81
2022/01/12 10:34:02;;;;;;;29.52;10.52;;;;;;;;;;5013899;28;20033;-80
2022/01/12 10:36:39;;;;;;;25.77;10.45;;;;;;;;;;5042464;28;20101;-80
2022/01/12 10:39:15;;;;;;;27.58;10.13;;;;;;;;;;5042715;28;20112;-81
2022/01/12 10:42:34;;;;;;;23.83;9.90;;;;;;;;;;5054350;28;20053;-78
2022/01/12 10:45:06;;;;;;;23.40;9.90;;;;;;;;;;4959759;28;20625;-81
2022/01/12 10:47:33;;;;;;;27.75;9.57;;;;;;;;;;5045154;28;20101;-81
2022/01/12 10:50:03;;;;;;;28.48;10.45;;;;;;;;;;5045183;28;20025;-81
2022/01/12 10:52:34;;;;;;;23.98;11.32;;;;;;;;;;5044494;28;20057;-81
2022/01/12 10:55:09;;;;;;;22.60;9.70;;;;;;;;;;5025333;28;20132;-80
2022/01/12 10:57:44;;;;;;;23.65;9.98;;;;;;;;;;5039778;28;20021;-80
2022/01/12 11:00:22;;;;;;;24.67;9.80;;;;;;;;;;5041878;28;20033;-81
2022/01/12 11:02:56;;;;;;;23.15;10.10;;;;;;;;;;5040368;28;20541;-79
2022/01/12 11:05:27;;;;;;;20.75;9.40;;;;;;;;;;5022589;28;20040;-81
2022/01/12 11:07:53;;;;;;;26.73;9.82;;;;;;;;;;5040217;28;20079;-80
2022/01/12 11:10:20;;;;;;;20.20;9.20;;;;;;;;;;5040474;28;20041;-80
2022/01/12 11:12:47;;;;;;;20.50;9.05;;;;;;;;;;5039927;28;20375;-79
2022/01/12 11:15:15;;;;;;;24.42;10.27;;;;;;;;;;5023193;28;20029;-82
2022/01/12 11:17:43;;;;;;;23.08;9.77;;;;;;;;;;5040847;28;20025;-80
2022/01/12 11:20:25;;;;;;;24.75;9.57;;;;;;;;;;5022032;28;20029;-80
2022/01/12 11:23:06;;;;;;;24.95;10.10;;;;;;;;;;5041084;28;20025;-81
2022/01/12 11:25:37;;;;;;;20.90;9.27;;;;;;;;;;5023148;28;20096;-79
2022/01/12 11:28:18;;;;;;;26.42;9.63;;;;;;;;;;5023879;28;20064;-80
2022/01/12 11:30:55;;;;;;;24.95;9.95;;;;;;;;;;5040874;28;20054;-78
2022/01/12 11:33:22;;;;;;;25.98;10.30;;;;;;;;;;5040698;28;20025;-79
2022/01/12 11:35:52;;;;;;;22.55;11.02;;;;;;;;;;5041905;28;20018;-80
2022/01/12 11:38:28;;;;;;;20.90;9.30;;;;;;;;;;5041803;28;20493;-80
2022/01/12 11:41:10;;;;;;;24.55;9.38;;;;;;;;;;5040472;28;20368;-79
2022/01/12 11:43:52;;;;;;;23.73;10.15;;;;;;;;;;5040922;28;20207;-79
2022/01/12 11:46:19;;;;;;;24.25;9.65;;;;;;;;;;5023469;28;20021;-79
2022/01/12 11:48:55;;;;;;;26.67;9.95;;;;;;;;;;5040062;28;20471;-79
2022/01/12 11:51:34;;;;;;;21.77;9.32;;;;;;;;;;5041106;28;20033;-80
2022/01/12 11:54:07;;;;;;;25.45;10.10;;;;;;;;;;5042099;28;20029;-81
2022/01/12 11:56:33;;;;;;;27.77;10.20;;;;;;;;;;5040645;28;20074;-79
2022/01/12 11:59:05;;;;;;;22.42;9.93;;;;;;;;;;5024103;28;20120;-82
2022/01/12 12:01:44;;;;;;;24.88;10.30;;;;;;;;;;5024412;28;20028;-80
2022/01/12 12:04:24;;;;;;;23.55;10.65;;;;;;;;;;5041052;28;20057;-80
2022/01/12 12:07:00;;;;;;;22.15;9.18;;;;;;;;;;5041107;28;20069;-81
2022/01/12 12:09:35;;;;;;;23.48;10.05;;;;;;;;;;5041109;28;20029;-80
2022/01/12 12:12:00;;;;;;;22.35;9.68;;;;;;;;;;5040967;28;20021;-82
2022/01/12 12:14:25;;;;;;;25.52;10.73;;;;;;;;;;5040111;28;20026;-79
2022/01/12 12:16:51;;;;;;;22.80;10.25;;;;;;;;;;5022098;28;20018;-81
2022/01/12 12:19:18;;;;;;;25.17;10.95;;;;;;;;;;5040264;28;20029;-81
2022/01/12 12:21:48;;;;;;;25.50;10.15;;;;;;;;;;5041904;28;20099;-80
2022/01/12 12:24:15;;;;;;;24.20;9.50;;;;;;;;;;5024054;28;20043;-81
2022/01/12 12:26:46;;;;;;;27.70;10.38;;;;;;;;;;5041524;28;20025;-83
2022/01/12 12:29:14;;;;;;;26.33;10.27;;;;;;;;;;5023796;28;20049;-81
2022/01/12 12:31:40;;;;;;;28.92;10.70;;;;;;;;;;5023471;28;20037;-80
2022/01/12 12:34:06;;;;;;;23.23;10.10;;;;;;;;;;5040011;28;20024;-80
2022/01/12 12:37:01;;;;;;;22.10;9.90;;;;;;;;;;5048095;28;20018;-81
2022/01/12 12:39:29;;;;;;;23.20;9.85;;;;;;;;;;5044033;28;20482;-81
2022/01/12 12:41:55;;;;;;;26.33;11.00;;;;;;;;;;5024043;28;20026;-80
2022/01/12 12:44:27;;;;;;;27.05;10.00;;;;;;;;;;5025865;28;20048;-81
2022/01/12 12:47:08;;;;;;;26.88;9.43;;;;;;;;;;5025976;28;20088;-80
2022/01/12 12:50:03;;;;;;;23.33;9.77;;;;;;;;;;5045964;28;20025;-80
2022/01/12 12:52:37;;;;;;;25.95;9.48;;;;;;;;;;5046479;28;20032;-80
2022/01/12 12:55:06;;;;;;;23.95;10.13;;;;;;;;;;5029357;28;20048;-81
2022/01/12 12:57:31;;;;;;;23.88;9.45;;;;;;;;;;5047305;28;20026;-81
2022/01/12 13:00:11;;;;;;;22.98;9.65;;;;;;;;;;5029882;28;20097;-80
2022/01/12 13:02:42;;;;;;;22.27;9.65;;;;;;;;;;5045750;28;20049;-81
2022/01/12 13:05:12;;;;;;;19.98;8.80;;;;;;;;;;5046641;28;20076;-79
2022/01/12 13:07:40;;;;;;;21.17;9.23;;;;;;;;;;5048245;28;20021;-81
2022/01/12 13:10:10;;;;;;;22.92;9.20;;;;;;;;;;5047393;28;20051;-81
2022/01/12 13:12:40;;;;;;;22.30;9.35;;;;;;;;;;5046232;28;20025;-82
2022/01/12 13:15:16;;;;;;;25.70;9.48;;;;;;;;;;5028370;28;20022;-81
2022/01/12 13:18:13;;;;;;;24.27;9.25;;;;;;;;;;5028899;28;20021;-80
2022/01/12 13:24:07;;;;;;;18.42;9.13;;;;;;;;;;5056568;28;20036;-81
2022/01/12 13:26:36;;;;;;;19.42;9.07;;;;;;;;;;5031506;28;20038;-80
2022/01/12 13:29:15;;;;;;;20.60;9.35;;;;;;;;;;5038827;28;20025;-80
2022/01/12 13:31:41;;;;;;;22.20;9.57;;;;;;;;;;5055296;28;20104;-80
2022/01/12 13:34:14;;;;;;;21.17;8.27;;;;;;;;;;5054716;28;20033;-80
2022/01/12 13:36:50;;;;;;;19.83;8.48;;;;;;;;;;5054530;28;20097;-80
2022/01/12 13:39:31;;;;;;;26.58;9.25;;;;;;;;;;5057638;28;20010;-81
2022/01/12 13:42:30;;;;;;;21.00;9.18;;;;;;;;;;5041219;28;20021;-80
2022/01/12 13:45:08;;;;;;;12.73;6.38;;;;;;;;;;5055770;28;20042;-80
2022/01/12 13:47:36;;;;;;;13.32;6.18;;;;;;;;;;5053680;28;20021;-80
2022/01/12 13:50:05;;;;;;;10.95;5.13;;;;;;;;;;5052781;28;20025;-80
2022/01/12 13:52:43;;;;;;;10.48;5.15;;;;;;;;;;5049268;28;20032;-80
2022/01/12 13:55:13;;;;;;;8.85;5.03;;;;;;;;;;5044402;28;20025;-79
2022/01/12 13:57:51;;;;;;;10.88;5.45;;;;;;;;;;5042324;28;20033;-81
2022/01/12 14:00:24;;;;;;;11.85;4.97;;;;;;;;;;5041832;28;20479;-80
2022/01/12 14:02:49;;;;;;;8.88;5.00;;;;;;;;;;5024270;28;20116;-81
2022/01/12 14:05:19;;;;;;;11.63;5.68;;;;;;;;;;5005285;28;20061;-79
2022/01/12 14:08:00;;;;;;;10.13;4.72;;;;;;;;;;5022597;28;20037;-81
2022/01/12 14:10:29;;;;;;;8.43;5.00;;;;;;;;;;5022962;28;20112;-80
2022/01/12 14:12:57;;;;;;;11.30;4.55;;;;;;;;;;5040047;28;20045;-80
2022/01/12 14:15:26;;;;;;;10.43;5.43;;;;;;;;;;5038773;28;20021;-80
2022/01/12 14:17:55;;;;;;;10.00;4.85;;;;;;;;;;5040713;28;20017;-79
2022/01/12 14:20:36;;;;;;;8.15;4.63;;;;;;;;;;5039845;28;20105;-80
2022/01/12 14:23:07;;;;;;;11.63;5.38;;;;;;;;;;5039682;28;20108;-80
2022/01/12 14:25:36;;;;;;;9.95;4.88;;;;;;;;;;5040880;28;20029;-80
2022/01/12 14:28:02;;;;;;;9.40;5.03;;;;;;;;;;5021845;28;20025;-79
2022/01/12 14:30:28;;;;;;;10.93;5.25;;;;;;;;;;5040438;28;20112;-80
2022/01/12 14:32:53;;;;;;;10.25;4.53;;;;;;;;;;5041136;28;20111;-80
2022/01/12 14:35:21;;;;;;;9.50;5.03;;;;;;;;;;5040718;28;20021;-81
2022/01/12 14:37:51;;;;;;;15.15;5.45;;;;;;;;;;5024219;28;20520;-79
2022/01/12 14:40:19;;;;;;;9.05;4.93;;;;;;;;;;5024229;28;20032;-81
2022/01/12 14:42:46;;;;;;;13.48;5.47;;;;;;;;;;5042515;28;20029;-81
2022/01/12 14:45:15;;;;;;;13.80;6.13;;;;;;;;;;5041854;28;20390;-80
2022/01/12 14:47:43;;;;;;;8.93;5.20;;;;;;;;;;5043673;28;20090;-80
2022/01/12 14:50:09;;;;;;;11.00;5.40;;;;;;;;;;5042843;28;20030;-79
2022/01/12 14:52:37;;;;;;;10.77;5.60;;;;;;;;;;5042557;28;20500;-79
2022/01/12 14:55:04;;;;;;;10.10;5.30;;;;;;;;;;5042603;28;20108;-81
2022/01/12 14:57:29;;;;;;;10.85;5.40;;;;;;;;;;5024231;28;20031;-79
2022/01/12 14:59:55;;;;;;;11.18;5.57;;;;;;;;;;5041844;28;20084;-82
2022/01/12 15:02:20;;;;;;;12.52;5.70;;;;;;;;;;5039624;28;20056;-82
2022/01/12 15:04:46;;;;;;;11.13;5.90;;;;;;;;;;5043271;28;20025;-81
2022/01/12 15:07:11;;;;;;;11.95;5.93;;;;;;;;;;5025845;28;20029;-79
2022/01/12 15:09:36;;;;;;;13.85;5.75;;;;;;;;;;5043035;28;20025;-79
2022/01/12 15:12:07;;;;;;;13.30;6.30;;;;;;;;;;5026192;28;20036;-81
2022/01/12 15:14:45;;;;;;;11.23;5.90;;;;;;;;;;5043262;28;20029;-81
2022/01/12 15:17:11;;;;;;;13.63;5.60;;;;;;;;;;5025484;28;20059;-79
2022/01/12 15:19:40;;;;;;;11.57;5.78;;;;;;;;;;5024701;28;20025;-80
2022/01/12 15:22:05;;;;;;;10.82;5.55;;;;;;;;;;5042739;28;20473;-81
2022/01/12 15:24:33;;;;;;;12.15;5.82;;;;;;;;;;5042776;28;20033;-81
2022/01/12 15:26:58;;;;;;;11.57;5.65;;;;;;;;;;5026112;28;20021;-81
2022/01/12 15:29:29;;;;;;;11.65;5.85;;;;;;;;;;5043942;28;20107;-81
2022/01/12 15:31:55;;;;;;;11.25;5.72;;;;;;;;;;5025174;28;20120;-81
2022/01/12 15:34:20;;;;;;;14.85;5.97;;;;;;;;;;5025087;28;20049;-81
2022/01/12 15:36:48;;;;;;;13.60;6.00;;;;;;;;;;5040802;28;20028;-81
2022/01/12 15:39:14;;;;;;;10.45;5.47;;;;;;;;;;5042952;28;20029;-82
2022/01/12 15:41:42;;;;;;;10.63;5.63;;;;;;;;;;5042314;28;20092;-81
2022/01/12 15:44:07;;;;;;;10.90;5.47;;;;;;;;;;5042345;28;20021;-81
2022/01/12 15:46:33;;;;;;;10.68;5.55;;;;;;;;;;5043317;28;20382;-81
2022/01/12 15:48:58;;;;;;;15.52;6.70;;;;;;;;;;5043838;28;20028;-81
2022/01/12 15:51:23;;;;;;;15.50;6.40;;;;;;;;;;5025047;28;20039;-79
2022/01/12 15:53:52;;;;;;;11.88;6.45;;;;;;;;;;5042930;28;20041;-80
2022/01/12 15:56:21;;;;;;;13.10;5.88;;;;;;;;;;5043077;28;20027;-80